createdAt,value
2023-02-04T00:00:24.452Z,17.75
2023-02-04T00:02:55.340Z,15.75
2023-02-04T00:05:25.651Z,20.00
2023-02-04T00:07:56.022Z,18.00
2023-02-04T00:10:26.792Z,21.00
2023-02-04T00:12:57.072Z,21.67
2023-02-04T00:15:29.231Z,18.00
2023-02-04T00:17:59.809Z,20.75
2023-02-04T00:20:30.369Z,23.00
2023-02-04T00:23:01.014Z,16.00
2023-02-04T00:25:33.127Z,15.75
2023-02-04T00:28:04.994Z,25.25
2023-02-04T00:30:36.111Z,21.50
2023-02-04T00:33:06.692Z,19.75
2023-02-04T00:35:37.022Z,15.00
2023-02-04T00:38:08.185Z,13.75
2023-02-04T00:40:38.804Z,13.50
2023-02-04T00:43:09.668Z,14.75
2023-02-04T00:45:40.632Z,10.25
2023-02-04T00:48:11.013Z,23.50
2023-02-04T00:50:42.427Z,18.50
2023-02-04T00:53:13.422Z,18.25
2023-02-04T00:55:44.725Z,12.25
2023-02-04T00:58:14.970Z,12.75
2023-02-04T01:00:46.034Z,20.25
2023-02-04T01:03:16.354Z,21.00
2023-02-04T01:05:48.280Z,15.50
2023-02-04T01:08:19.199Z,29.25
2023-02-04T01:10:49.747Z,32.00
2023-02-04T01:13:20.079Z,30.75
2023-02-04T01:15:51.027Z,29.50
2023-02-04T01:18:21.442Z,24.50
2023-02-04T01:20:51.903Z,26.75
2023-02-04T01:23:22.155Z,29.50
2023-02-04T01:25:52.544Z,34.75
2023-02-04T01:28:23.084Z,42.25
2023-02-04T01:30:53.610Z,29.75
2023-02-04T01:33:24.059Z,32.50
2023-02-04T01:35:54.558Z,22.75
2023-02-04T01:38:25.573Z,30.00
2023-02-04T01:40:56.912Z,40.75
2023-02-04T01:43:28.004Z,36.50
2023-02-04T01:45:58.905Z,42.75
2023-02-04T01:48:29.283Z,37.50
2023-02-04T01:51:05.357Z,29.75
2023-02-04T01:53:39.056Z,37.50
2023-02-04T01:56:39.250Z,52.75
2023-02-04T01:59:15.060Z,49.25
2023-02-04T02:01:48.176Z,42.75
2023-02-04T02:04:27.530Z,43.00
2023-02-04T02:07:01.025Z,40.50
2023-02-04T02:09:33.138Z,44.00
2023-02-04T02:12:04.136Z,47.50
2023-02-04T02:14:35.328Z,45.50
2023-02-04T02:17:05.727Z,53.25
2023-02-04T02:19:40.017Z,34.50
2023-02-04T02:22:15.695Z,51.25
2023-02-04T02:24:45.921Z,41.25
2023-02-04T02:27:16.540Z,78.25
2023-02-04T02:29:47.113Z,86.75
2023-02-04T02:32:18.401Z,79.00
2023-02-04T02:34:48.829Z,71.25
2023-02-04T02:37:19.265Z,35.75
2023-02-04T02:39:49.691Z,30.25
2023-02-04T02:42:21.170Z,23.25
2023-02-04T02:44:52.235Z,32.75
2023-02-04T02:47:23.840Z,37.00
2023-02-04T02:49:55.104Z,21.25
2023-02-04T02:52:25.384Z,21.00
2023-02-04T02:54:55.913Z,19.75
2023-02-04T02:57:26.343Z,25.25
2023-02-04T02:59:56.624Z,27.75
2023-02-04T03:02:26.989Z,26.75
2023-02-04T03:04:59.366Z,23.75
2023-02-04T03:07:30.146Z,18.50
2023-02-04T03:10:02.363Z,23.25
2023-02-04T03:12:33.042Z,19.00
2023-02-04T03:15:05.060Z,22.75
2023-02-04T03:17:36.311Z,19.25
2023-02-04T03:20:08.327Z,24.75
2023-02-04T03:22:39.915Z,15.50
2023-02-04T03:25:10.244Z,25.75
2023-02-04T03:27:41.502Z,20.00
2023-02-04T03:30:11.996Z,20.75
2023-02-04T03:32:43.217Z,20.00
2023-02-04T03:35:14.028Z,16.75
2023-02-04T03:37:45.328Z,21.25
2023-02-04T03:40:16.428Z,26.50
2023-02-04T03:42:47.316Z,27.75
2023-02-04T03:45:17.761Z,31.75
2023-02-04T03:47:49.259Z,16.25
2023-02-04T03:50:19.771Z,21.75
2023-02-04T03:52:51.179Z,23.25
2023-02-04T03:55:21.409Z,26.25
2023-02-04T03:57:52.241Z,17.50
2023-02-04T04:00:22.663Z,26.25
2023-02-04T04:02:53.026Z,26.75
2023-02-04T04:05:23.581Z,26.50
2023-02-04T04:07:54.241Z,21.50
2023-02-04T04:10:25.013Z,18.50
2023-02-04T04:12:56.004Z,29.25
2023-02-04T04:15:28.971Z,28.00
2023-02-04T04:17:59.525Z,27.50
2023-02-04T04:20:30.034Z,24.75
2023-02-04T04:23:06.057Z,19.25
2023-02-04T04:25:37.748Z,27.25
2023-02-04T04:28:08.067Z,22.75
2023-02-04T04:30:38.589Z,24.50
2023-02-04T04:33:09.001Z,23.50
2023-02-04T04:35:40.035Z,24.25
2023-02-04T04:38:14.634Z,31.75
2023-02-04T04:40:45.230Z,25.25
2023-02-04T04:43:16.202Z,19.75
2023-02-04T04:45:48.336Z,27.50
2023-02-04T04:48:18.660Z,22.75
2023-02-04T04:50:48.941Z,24.50
2023-02-04T04:53:19.346Z,27.75
2023-02-04T04:55:49.926Z,36.00
2023-02-04T04:58:20.730Z,27.75
2023-02-04T05:00:51.316Z,22.50
2023-02-04T05:03:36.699Z,30.00
2023-02-04T05:06:00.479Z,32.25
2023-02-04T05:08:30.985Z,24.25
2023-02-04T05:11:01.435Z,23.25
2023-02-04T05:13:32.139Z,32.00
2023-02-04T05:16:02.366Z,28.75
2023-02-04T05:18:33.163Z,29.25
2023-02-04T05:21:03.719Z,28.00
2023-02-04T05:23:34.391Z,33.75
2023-02-04T05:26:05.127Z,13.00
2023-02-04T05:28:35.869Z,30.00
2023-02-04T05:31:06.995Z,29.00
2023-02-04T05:33:37.421Z,34.00
2023-02-04T05:36:07.904Z,31.25
2023-02-04T05:38:38.446Z,34.00
2023-02-04T05:41:08.568Z,26.50
2023-02-04T05:43:39.880Z,23.00
2023-02-04T05:46:10.274Z,23.75
2023-02-04T05:48:40.929Z,22.50
2023-02-04T05:51:11.138Z,28.75
2023-02-04T05:53:41.963Z,34.75
2023-02-04T05:56:12.286Z,32.25
2023-02-04T05:58:42.860Z,30.75
2023-02-04T06:01:13.117Z,32.00
2023-02-04T06:03:43.553Z,37.75
2023-02-04T06:06:13.810Z,42.25
2023-02-04T06:08:44.675Z,33.25
2023-02-04T06:11:15.114Z,39.25
2023-02-04T06:13:45.502Z,44.00
2023-02-04T06:16:15.930Z,50.00
2023-02-04T06:18:46.518Z,48.25
2023-02-04T06:21:16.911Z,55.25
2023-02-04T06:23:47.278Z,43.00
2023-02-04T06:26:17.485Z,40.25
2023-02-04T06:28:47.886Z,42.50
2023-02-04T06:31:18.258Z,48.25
2023-02-04T06:33:50.073Z,49.25
2023-02-04T06:36:20.346Z,51.50
2023-02-04T06:38:54.243Z,42.25
2023-02-04T06:41:24.914Z,50.75
2023-02-04T06:43:59.589Z,59.25
2023-02-04T06:46:30.006Z,53.50
2023-02-04T06:49:00.406Z,45.25
2023-02-04T06:51:30.616Z,46.50
2023-02-04T06:54:02.341Z,51.25
2023-02-04T06:56:33.298Z,44.25
2023-02-04T06:59:03.709Z,49.50
2023-02-04T07:01:35.845Z,41.00
2023-02-04T07:04:06.423Z,55.25
2023-02-04T07:06:37.006Z,53.50
2023-02-04T07:09:10.059Z,57.00
2023-02-04T07:11:43.693Z,57.50
2023-02-04T07:14:14.090Z,67.00
2023-02-04T07:16:44.795Z,43.50
2023-02-04T07:19:21.240Z,45.25
2023-02-04T07:21:57.385Z,57.75
2023-02-04T07:24:30.125Z,63.00
2023-02-04T07:27:02.599Z,58.25
2023-02-04T07:29:34.098Z,85.75
2023-02-04T07:32:04.663Z,60.75
2023-02-04T07:34:36.754Z,56.75
2023-02-04T07:37:07.207Z,84.25
2023-02-04T07:39:39.009Z,68.25
2023-02-04T07:42:10.957Z,68.25
2023-02-04T07:44:41.517Z,67.25
2023-02-04T07:47:13.318Z,79.75
2023-02-04T07:49:46.482Z,79.75
2023-02-04T07:52:17.095Z,81.75
2023-02-04T07:54:48.900Z,76.25
2023-02-04T07:57:22.140Z,74.25
2023-02-04T07:59:55.347Z,74.00
2023-02-04T08:02:27.608Z,76.50
2023-02-04T08:05:00.829Z,83.25
2023-02-04T08:07:31.206Z,75.75
2023-02-04T08:10:01.653Z,75.25
2023-02-04T08:12:32.680Z,75.50
2023-02-04T08:15:08.009Z,72.00
2023-02-04T08:17:40.944Z,39.25
2023-02-04T08:20:17.538Z,53.75
2023-02-04T08:22:48.569Z,65.00
2023-02-04T08:25:23.880Z,57.00
2023-02-04T08:27:55.009Z,68.75
2023-02-04T08:30:28.116Z,69.75
2023-02-04T08:33:01.748Z,66.00
2023-02-04T08:35:37.870Z,65.00
2023-02-04T08:38:08.249Z,65.25
2023-02-04T08:40:41.827Z,70.50
2023-02-04T08:43:13.960Z,79.75
2023-02-04T08:45:47.696Z,68.75
2023-02-04T08:48:18.669Z,67.00
2023-02-04T08:50:48.968Z,68.00
2023-02-04T08:53:19.483Z,75.50
2023-02-04T08:55:49.774Z,61.25
2023-02-04T08:58:20.527Z,64.00
2023-02-04T09:00:51.026Z,71.00
2023-02-04T09:03:21.438Z,67.25
2023-02-04T09:05:53.064Z,61.75
2023-02-04T09:08:24.031Z,57.00
2023-02-04T09:10:55.795Z,50.00
2023-02-04T09:13:26.211Z,46.75
2023-02-04T09:15:57.025Z,41.50
2023-02-04T09:18:28.972Z,69.00
2023-02-04T09:21:01.616Z,60.75
2023-02-04T09:23:32.168Z,55.75
2023-02-04T09:26:02.959Z,59.75
2023-02-04T09:28:34.608Z,57.25
2023-02-04T09:31:06.950Z,56.25
2023-02-04T09:33:39.558Z,47.25
2023-02-04T09:36:11.801Z,50.25
2023-02-04T09:38:43.192Z,49.75
2023-02-04T09:47:01.455Z,37.25
2023-02-04T09:49:33.428Z,27.50
2023-02-04T09:52:06.661Z,31.50
2023-02-04T09:54:40.117Z,49.00
2023-02-04T09:57:19.527Z,46.50
2023-02-04T09:59:51.571Z,42.50
2023-02-04T10:02:26.914Z,32.50
2023-02-04T10:04:58.243Z,42.75
2023-02-04T10:07:28.757Z,48.00
2023-02-04T10:09:59.568Z,48.25
2023-02-04T10:12:30.269Z,51.50
2023-02-04T10:15:00.730Z,36.25
2023-02-04T10:17:32.704Z,37.75
2023-02-04T10:20:03.164Z,44.25
2023-02-04T10:22:36.024Z,36.50
2023-02-04T10:25:13.767Z,46.75
2023-02-04T10:28:01.008Z,38.00
2023-02-04T10:30:41.629Z,39.75
2023-02-04T10:33:25.357Z,35.75
2023-02-04T10:36:00.467Z,39.75
2023-02-04T10:38:31.208Z,32.00
2023-02-04T10:41:05.284Z,34.25
2023-02-04T10:44:00.018Z,32.25
2023-02-04T10:46:32.406Z,32.25
2023-02-04T10:49:17.896Z,33.50
2023-02-04T10:51:50.079Z,42.25
2023-02-04T10:54:25.126Z,25.50
2023-02-04T10:56:55.828Z,30.50
2023-02-04T10:59:28.197Z,24.75
2023-02-04T11:02:01.481Z,31.50
2023-02-04T11:04:35.290Z,34.75
2023-02-04T11:07:07.150Z,19.75
2023-02-04T11:09:39.471Z,40.50
2023-02-04T11:15:43.579Z,42.00
2023-02-04T11:18:25.908Z,34.25
2023-02-04T11:21:04.257Z,53.50
2023-02-04T11:23:37.187Z,42.50
2023-02-04T11:26:15.653Z,48.50
2023-02-04T11:28:54.510Z,44.00
2023-02-04T11:31:27.919Z,45.00
2023-02-04T11:34:13.025Z,47.75
2023-02-04T11:37:04.203Z,34.75
2023-02-04T11:39:42.843Z,35.75
2023-02-04T11:42:37.448Z,37.25
2023-02-04T11:45:19.662Z,39.25
2023-02-04T11:48:19.384Z,37.00
2023-02-04T11:50:59.893Z,30.75
2023-02-04T11:56:32.877Z,21.75
2023-02-04T11:59:17.524Z,25.50
2023-02-04T12:01:37.960Z,34.75
2023-02-04T12:04:14.858Z,27.25
2023-02-04T12:06:45.304Z,32.00
2023-02-04T12:09:20.526Z,36.00
2023-02-04T12:11:58.785Z,40.25
2023-02-04T12:14:36.429Z,33.50
2023-02-04T12:17:22.780Z,37.50
2023-02-04T12:19:54.914Z,38.00
2023-02-04T12:22:40.040Z,32.50
2023-02-04T12:25:06.816Z,40.00
2023-02-04T12:27:42.024Z,38.75
2023-02-04T12:30:16.622Z,26.00
2023-02-04T12:32:49.659Z,25.00
2023-02-04T12:35:24.631Z,35.00
2023-02-04T12:37:58.972Z,37.67
2023-02-04T12:40:35.502Z,28.25
2023-02-04T12:43:12.762Z,31.50
2023-02-04T12:45:41.301Z,35.75
2023-02-04T12:48:13.885Z,27.75
2023-02-04T12:50:47.043Z,18.50
2023-02-04T12:53:24.186Z,28.75
2023-02-04T12:55:57.526Z,23.75
2023-02-04T12:58:27.667Z,18.25
2023-02-04T13:01:03.865Z,13.50
2023-02-04T13:03:59.711Z,24.25
2023-02-04T13:12:56.665Z,21.75
2023-02-04T13:13:04.730Z,19.75
2023-02-04T13:38:36.483Z,27.75
2023-02-04T13:44:16.284Z,27.50
2023-02-04T13:47:40.612Z,23.75
2023-02-04T14:18:36.010Z,37.50
2023-02-04T14:21:43.097Z,34.00
2023-02-04T14:24:06.745Z,34.75
2023-02-04T15:16:34.411Z,40.00
2023-02-04T15:19:05.011Z,35.75
2023-02-04T15:21:35.585Z,39.00
2023-02-04T15:24:06.339Z,26.75
2023-02-04T15:26:38.804Z,36.25
2023-02-04T15:29:10.718Z,41.25
2023-02-04T15:31:41.589Z,40.75
2023-02-04T15:34:12.403Z,45.00
2023-02-04T15:36:44.663Z,53.25
2023-02-04T15:39:20.064Z,55.00
2023-02-04T15:41:50.485Z,64.50
2023-02-04T15:44:20.729Z,74.75
2023-02-04T15:46:57.268Z,76.00
2023-02-04T15:49:27.875Z,75.50
2023-02-04T15:51:58.818Z,66.25
2023-02-04T15:54:31.119Z,77.00
2023-02-04T15:57:02.595Z,69.00
2023-02-04T15:59:32.836Z,69.00
2023-02-04T16:02:04.076Z,65.75
2023-02-04T16:04:38.352Z,61.00
2023-02-04T16:07:16.479Z,49.75
2023-02-04T16:09:50.422Z,76.25
2023-02-04T16:12:24.490Z,56.75
2023-02-04T16:14:56.899Z,72.75
2023-02-04T16:17:28.019Z,66.75
2023-02-04T16:20:01.100Z,59.50
2023-02-04T16:22:31.929Z,49.75
2023-02-04T16:25:07.593Z,50.00
2023-02-04T16:27:47.374Z,51.00
2023-02-04T16:30:51.729Z,44.00
2023-02-04T16:36:30.637Z,58.00
2023-02-04T16:40:05.860Z,49.25
2023-02-04T16:40:10.973Z,51.50
2023-02-04T16:44:56.179Z,67.25
2023-02-04T16:47:31.672Z,64.75
2023-02-04T16:50:04.725Z,61.00
2023-02-04T16:52:37.633Z,62.75
2023-02-04T16:55:09.820Z,90.00
2023-02-04T16:57:52.526Z,81.75
2023-02-04T17:00:27.737Z,89.00
2023-02-04T17:03:10.998Z,101.00
2023-02-04T17:05:50.299Z,94.25
2023-02-04T17:08:43.674Z,99.50
2023-02-04T17:15:34.319Z,91.25
2023-02-04T17:40:08.152Z,58.50
2023-02-04T17:42:41.890Z,45.25
2023-02-04T17:48:01.054Z,48.00
2023-02-04T17:53:07.204Z,48.00
2023-02-04T17:55:44.902Z,56.50
2023-02-04T17:58:25.702Z,54.00
2023-02-04T18:00:56.852Z,53.25
2023-02-04T18:06:25.757Z,68.50
2023-02-04T18:09:04.797Z,65.75
2023-02-04T18:11:40.044Z,50.00
2023-02-04T18:14:19.880Z,66.50
2023-02-04T18:16:51.729Z,67.00
2023-02-04T18:19:27.555Z,61.75
2023-02-04T18:21:59.575Z,52.00
2023-02-04T18:24:35.300Z,51.50
2023-02-04T18:27:23.933Z,38.00
2023-02-04T18:29:56.547Z,51.25
2023-02-04T18:33:01.720Z,48.00
2023-02-04T18:35:38.088Z,53.25
2023-02-04T18:38:29.522Z,57.75
2023-02-04T18:44:09.143Z,56.25
2023-02-04T18:46:43.772Z,51.50
2023-02-04T18:49:43.301Z,53.25
2023-02-04T18:52:20.618Z,58.75
2023-02-04T18:54:54.845Z,59.50
2023-02-04T18:57:41.661Z,71.50
2023-02-04T19:00:23.647Z,55.50
2023-02-04T19:02:56.935Z,68.50
2023-02-04T19:05:36.315Z,67.00
2023-02-04T19:08:14.745Z,73.75
2023-02-04T19:10:44.788Z,56.50
2023-02-04T19:13:24.203Z,67.50
2023-02-04T19:16:20.384Z,61.00
2023-02-04T19:18:53.406Z,51.25
2023-02-04T19:21:43.117Z,60.25
2023-02-04T19:24:30.644Z,59.75
2023-02-04T19:27:04.138Z,51.00
2023-02-04T19:29:55.470Z,55.50
2023-02-04T19:32:30.969Z,53.00
2023-02-04T19:35:09.434Z,59.75
2023-02-04T19:37:42.182Z,44.00
2023-02-04T19:40:36.706Z,61.00
2023-02-04T19:43:36.576Z,58.50
2023-02-04T19:46:21.475Z,49.75
2023-02-04T19:48:52.086Z,64.75
2023-02-04T19:51:31.282Z,52.75
2023-02-04T19:54:19.337Z,53.25
2023-02-04T19:56:50.594Z,48.50
2023-02-04T19:59:32.828Z,50.50
2023-02-04T20:02:07.017Z,59.50
2023-02-04T20:04:48.234Z,48.25
2023-02-04T20:07:27.007Z,52.00
2023-02-04T20:10:10.488Z,54.25
2023-02-04T20:12:47.572Z,57.75
2023-02-04T20:15:20.681Z,48.00
2023-02-04T20:17:52.831Z,52.75
2023-02-04T20:20:31.271Z,56.50
2023-02-04T20:23:07.069Z,58.00
2023-02-04T20:25:42.413Z,48.25
2023-02-04T20:28:21.776Z,58.50
2023-02-04T20:30:54.832Z,65.75
2023-02-04T20:33:50.758Z,67.25
2023-02-04T20:36:30.614Z,62.75
2023-02-04T20:39:18.794Z,67.50
2023-02-04T20:41:53.734Z,50.50
2023-02-04T20:44:27.697Z,51.25
2023-02-04T20:47:16.418Z,50.75
2023-02-04T20:49:55.767Z,55.00
2023-02-04T20:52:44.871Z,52.00
2023-02-04T20:55:23.891Z,61.00
2023-02-04T20:58:16.982Z,68.50
2023-02-04T21:01:10.111Z,52.25
2023-02-04T21:03:41.014Z,45.00
2023-02-04T21:06:20.009Z,37.50
2023-02-04T21:08:52.636Z,39.75
2023-02-04T21:11:23.592Z,36.00
2023-02-04T21:13:56.207Z,37.25
2023-02-04T21:16:28.775Z,39.25
2023-02-04T21:18:58.864Z,43.00
2023-02-04T21:21:31.992Z,34.25
2023-02-04T21:24:02.597Z,37.00
2023-02-04T21:26:33.428Z,38.25
2023-02-04T21:29:13.713Z,38.00
2023-02-04T21:31:49.242Z,52.50
2023-02-04T21:34:37.651Z,36.25
2023-02-04T21:37:11.008Z,37.75
2023-02-04T21:42:41.724Z,36.25
2023-02-04T21:45:18.401Z,39.50
2023-02-04T21:49:40.235Z,40.25
2023-02-04T21:50:39.643Z,39.00
2023-02-04T21:53:13.897Z,40.00
2023-02-04T21:55:44.980Z,42.25
2023-02-04T21:58:15.754Z,41.25
2023-02-04T22:00:46.211Z,43.00
2023-02-04T22:03:19.602Z,45.00
2023-02-04T22:05:56.104Z,45.25
2023-02-04T22:08:25.725Z,39.50
2023-02-04T22:11:02.346Z,50.00
2023-02-04T22:13:34.789Z,44.75
2023-02-04T22:16:06.914Z,47.00
2023-02-04T22:18:38.098Z,50.25
2023-02-04T22:21:08.465Z,52.50
2023-02-04T22:23:40.084Z,40.00
2023-02-04T22:26:11.123Z,50.00
2023-02-04T22:28:41.472Z,36.50
2023-02-04T22:31:13.130Z,32.25
2023-02-04T22:33:43.784Z,42.00
2023-02-04T22:36:14.703Z,40.00
2023-02-04T22:38:44.900Z,38.50
2023-02-04T22:41:15.907Z,39.75
2023-02-04T22:43:46.366Z,29.75
2023-02-04T22:46:16.740Z,31.25
2023-02-04T22:48:47.276Z,32.75
2023-02-04T22:51:17.571Z,35.25
2023-02-04T22:53:47.903Z,23.75
2023-02-04T22:56:18.253Z,31.50
2023-02-04T22:58:48.788Z,36.50
2023-02-04T23:01:19.147Z,38.75
2023-02-04T23:03:50.111Z,46.25
2023-02-04T23:06:21.336Z,31.25
2023-02-04T23:08:53.155Z,37.50
2023-02-04T23:11:24.177Z,34.50
2023-02-04T23:13:54.481Z,31.75
2023-02-04T23:16:24.887Z,36.75
2023-02-04T23:18:55.692Z,29.75
2023-02-04T23:21:26.796Z,41.50
2023-02-04T23:23:59.807Z,32.75
2023-02-04T23:26:31.776Z,36.00
2023-02-04T23:29:21.024Z,32.00
2023-02-04T23:31:49.756Z,32.50
2023-02-04T23:34:20.178Z,42.25
2023-02-04T23:36:51.339Z,38.25
2023-02-04T23:39:23.357Z,40.50
2023-02-04T23:41:59.114Z,36.00
2023-02-04T23:44:29.901Z,32.00
2023-02-04T23:47:04.663Z,37.50
2023-02-04T23:49:36.466Z,38.25
2023-02-04T23:52:19.788Z,40.50
2023-02-04T23:54:52.398Z,40.00
2023-02-04T23:57:47.179Z,32.50
